sensor_id;sensor_type;location;lat;lon;timestamp;temperature;humidity
29539;DHT22;16482;51.046;4.498;2023-01-15T00:02:16;18.50;46.50
29539;DHT22;16482;51.046;4.498;2023-01-15T00:04:42;18.50;46.50
29539;DHT22;16482;51.046;4.498;2023-01-15T00:07:11;18.50;46.40
29539;DHT22;16482;51.046;4.498;2023-01-15T00:09:39;18.60;46.40
29539;DHT22;16482;51.046;4.498;2023-01-15T00:12:12;18.50;46.40
29539;DHT22;16482;51.046;4.498;2023-01-15T00:14:41;18.60;46.30
29539;DHT22;16482;51.046;4.498;2023-01-15T00:17:09;18.50;46.30
29539;DHT22;16482;51.046;4.498;2023-01-15T00:19:43;18.50;46.20
29539;DHT22;16482;51.046;4.498;2023-01-15T00:22:08;18.50;46.30
29539;DHT22;16482;51.046;4.498;2023-01-15T00:24:42;18.50;46.20
29539;DHT22;16482;51.046;4.498;2023-01-15T00:27:26;18.50;46.10
29539;DHT22;16482;51.046;4.498;2023-01-15T00:30:07;18.50;46.10
29539;DHT22;16482;51.046;4.498;2023-01-15T00:32:33;18.50;46.10
29539;DHT22;16482;51.046;4.498;2023-01-15T00:34:59;18.50;46.10
29539;DHT22;16482;51.046;4.498;2023-01-15T00:37:25;18.50;46.00
29539;DHT22;16482;51.046;4.498;2023-01-15T00:39:52;18.50;46.00
29539;DHT22;16482;51.046;4.498;2023-01-15T00:42:18;18.60;46.00
29539;DHT22;16482;51.046;4.498;2023-01-15T00:44:43;18.50;45.90
29539;DHT22;16482;51.046;4.498;2023-01-15T00:47:11;18.50;45.90
29539;DHT22;16482;51.046;4.498;2023-01-15T00:49:40;18.50;46.00
29539;DHT22;16482;51.046;4.498;2023-01-15T00:52:15;18.50;45.90
29539;DHT22;16482;51.046;4.498;2023-01-15T00:54:41;18.50;45.90
29539;DHT22;16482;51.046;4.498;2023-01-15T00:57:10;18.50;45.90
29539;DHT22;16482;51.046;4.498;2023-01-15T00:59:45;18.50;45.90
29539;DHT22;16482;51.046;4.498;2023-01-15T01:02:11;18.50;45.90
29539;DHT22;16482;51.046;4.498;2023-01-15T01:04:39;18.50;45.90
29539;DHT22;16482;51.046;4.498;2023-01-15T01:07:13;18.50;45.90
29539;DHT22;16482;51.046;4.498;2023-01-15T01:09:41;18.50;45.80
29539;DHT22;16482;51.046;4.498;2023-01-15T01:12:10;18.50;45.80
29539;DHT22;16482;51.046;4.498;2023-01-15T01:14:44;18.50;45.80
29539;DHT22;16482;51.046;4.498;2023-01-15T01:17:12;18.50;45.80
29539;DHT22;16482;51.046;4.498;2023-01-15T01:19:40;18.50;45.70
29539;DHT22;16482;51.046;4.498;2023-01-15T01:22:13;18.50;45.60
29539;DHT22;16482;51.046;4.498;2023-01-15T01:24:39;18.50;45.70
29539;DHT22;16482;51.046;4.498;2023-01-15T01:27:13;18.50;45.60
29539;DHT22;16482;51.046;4.498;2023-01-15T01:29:39;18.50;45.60
29539;DHT22;16482;51.046;4.498;2023-01-15T01:32:12;18.50;45.60
29539;DHT22;16482;51.046;4.498;2023-01-15T01:34:46;18.50;45.60
29539;DHT22;16482;51.046;4.498;2023-01-15T01:37:11;18.60;45.60
29539;DHT22;16482;51.046;4.498;2023-01-15T01:39:40;18.50;45.60
29539;DHT22;16482;51.046;4.498;2023-01-15T01:42:16;18.50;45.60
29539;DHT22;16482;51.046;4.498;2023-01-15T01:47:20;18.50;45.50
29539;DHT22;16482;51.046;4.498;2023-01-15T01:49:53;18.50;45.50
29539;DHT22;16482;51.046;4.498;2023-01-15T01:52:44;18.50;45.50
29539;DHT22;16482;51.046;4.498;2023-01-15T01:55:13;18.50;45.40
29539;DHT22;16482;51.046;4.498;2023-01-15T01:57:41;18.50;45.40
29539;DHT22;16482;51.046;4.498;2023-01-15T02:00:08;18.50;45.30
29539;DHT22;16482;51.046;4.498;2023-01-15T02:02:36;18.50;45.40
29539;DHT22;16482;51.046;4.498;2023-01-15T02:05:03;18.50;45.40
29539;DHT22;16482;51.046;4.498;2023-01-15T02:07:30;18.50;45.30
29539;DHT22;16482;51.046;4.498;2023-01-15T02:09:58;18.50;45.30
29539;DHT22;16482;51.046;4.498;2023-01-15T02:12:36;18.50;45.30
29539;DHT22;16482;51.046;4.498;2023-01-15T02:15:15;18.50;45.20
29539;DHT22;16482;51.046;4.498;2023-01-15T02:17:45;18.60;45.20
29539;DHT22;16482;51.046;4.498;2023-01-15T02:20:31;18.50;45.10
29539;DHT22;16482;51.046;4.498;2023-01-15T02:25:58;18.50;45.10
29539;DHT22;16482;51.046;4.498;2023-01-15T02:28:30;18.50;45.00
29539;DHT22;16482;51.046;4.498;2023-01-15T02:31:12;18.50;45.00
29539;DHT22;16482;51.046;4.498;2023-01-15T02:34:19;18.50;44.90
29539;DHT22;16482;51.046;4.498;2023-01-15T02:36:50;18.50;44.90
29539;DHT22;16482;51.046;4.498;2023-01-15T02:39:19;18.50;44.90
29539;DHT22;16482;51.046;4.498;2023-01-15T02:41:49;18.50;44.90
29539;DHT22;16482;51.046;4.498;2023-01-15T02:44:19;18.50;44.90
29539;DHT22;16482;51.046;4.498;2023-01-15T02:46:47;18.50;44.80
29539;DHT22;16482;51.046;4.498;2023-01-15T02:49:16;18.50;44.80
29539;DHT22;16482;51.046;4.498;2023-01-15T02:51:56;18.50;44.70
29539;DHT22;16482;51.046;4.498;2023-01-15T02:54:27;18.50;44.70
29539;DHT22;16482;51.046;4.498;2023-01-15T02:56:56;18.50;44.70
29539;DHT22;16482;51.046;4.498;2023-01-15T02:59:34;18.50;44.70
29539;DHT22;16482;51.046;4.498;2023-01-15T03:02:14;18.50;44.60
29539;DHT22;16482;51.046;4.498;2023-01-15T03:07:31;18.50;44.70
29539;DHT22;16482;51.046;4.498;2023-01-15T03:09:59;18.50;44.70
29539;DHT22;16482;51.046;4.498;2023-01-15T03:12:43;18.50;44.70
29539;DHT22;16482;51.046;4.498;2023-01-15T03:15:38;18.50;44.70
29539;DHT22;16482;51.046;4.498;2023-01-15T03:18:24;18.50;44.70
29539;DHT22;16482;51.046;4.498;2023-01-15T03:20:56;18.50;44.70
29539;DHT22;16482;51.046;4.498;2023-01-15T03:23:23;18.50;44.60
29539;DHT22;16482;51.046;4.498;2023-01-15T03:25:50;18.50;44.60
29539;DHT22;16482;51.046;4.498;2023-01-15T03:28:21;18.50;44.70
29539;DHT22;16482;51.046;4.498;2023-01-15T03:30:48;18.50;44.60
29539;DHT22;16482;51.046;4.498;2023-01-15T03:33:14;18.50;44.70
29539;DHT22;16482;51.046;4.498;2023-01-15T03:38:18;18.50;44.70
29539;DHT22;16482;51.046;4.498;2023-01-15T03:49:58;18.50;44.60
29539;DHT22;16482;51.046;4.498;2023-01-15T03:58:28;18.50;44.60
29539;DHT22;16482;51.046;4.498;2023-01-15T04:00:57;18.50;44.60
29539;DHT22;16482;51.046;4.498;2023-01-15T04:03:26;18.50;44.60
29539;DHT22;16482;51.046;4.498;2023-01-15T04:05:55;18.50;44.60
29539;DHT22;16482;51.046;4.498;2023-01-15T04:08:23;18.50;44.60
29539;DHT22;16482;51.046;4.498;2023-01-15T04:10:52;18.50;44.60
29539;DHT22;16482;51.046;4.498;2023-01-15T04:13:18;18.50;44.60
29539;DHT22;16482;51.046;4.498;2023-01-15T04:15:44;18.50;44.60
29539;DHT22;16482;51.046;4.498;2023-01-15T04:18:10;18.50;44.50
29539;DHT22;16482;51.046;4.498;2023-01-15T04:20:36;18.50;44.60
29539;DHT22;16482;51.046;4.498;2023-01-15T04:23:02;18.50;44.60
29539;DHT22;16482;51.046;4.498;2023-01-15T04:25:35;18.50;44.50
29539;DHT22;16482;51.046;4.498;2023-01-15T04:28:01;18.50;44.50
29539;DHT22;16482;51.046;4.498;2023-01-15T04:30:35;18.50;44.50
29539;DHT22;16482;51.046;4.498;2023-01-15T04:33:02;18.50;44.50
29539;DHT22;16482;51.046;4.498;2023-01-15T04:35:31;18.50;44.40
29539;DHT22;16482;51.046;4.498;2023-01-15T04:37:59;18.50;44.50
29539;DHT22;16482;51.046;4.498;2023-01-15T04:40:34;18.50;44.50
29539;DHT22;16482;51.046;4.498;2023-01-15T04:43:19;18.50;44.40
29539;DHT22;16482;51.046;4.498;2023-01-15T04:46:03;18.50;44.40
29539;DHT22;16482;51.046;4.498;2023-01-15T04:48:29;18.50;44.40
29539;DHT22;16482;51.046;4.498;2023-01-15T04:50:56;18.50;44.40
29539;DHT22;16482;51.046;4.498;2023-01-15T04:53:22;18.50;44.40
29539;DHT22;16482;51.046;4.498;2023-01-15T04:55:47;18.50;44.40
29539;DHT22;16482;51.046;4.498;2023-01-15T04:58:13;18.50;44.40
29539;DHT22;16482;51.046;4.498;2023-01-15T05:00:39;18.50;44.40
29539;DHT22;16482;51.046;4.498;2023-01-15T05:03:06;18.50;44.40
29539;DHT22;16482;51.046;4.498;2023-01-15T05:05:34;18.50;44.30
29539;DHT22;16482;51.046;4.498;2023-01-15T05:08:00;18.50;44.30
29539;DHT22;16482;51.046;4.498;2023-01-15T05:10:33;18.50;44.30
29539;DHT22;16482;51.046;4.498;2023-01-15T05:13:02;18.50;44.30
29539;DHT22;16482;51.046;4.498;2023-01-15T05:15:30;18.50;44.30
29539;DHT22;16482;51.046;4.498;2023-01-15T05:18:04;18.50;44.30
29539;DHT22;16482;51.046;4.498;2023-01-15T05:20:30;18.50;44.30
29539;DHT22;16482;51.046;4.498;2023-01-15T05:23:03;18.50;44.30
29539;DHT22;16482;51.046;4.498;2023-01-15T05:25:31;18.50;44.20
29539;DHT22;16482;51.046;4.498;2023-01-15T05:28:05;18.50;44.20
29539;DHT22;16482;51.046;4.498;2023-01-15T05:30:33;18.50;44.20
29539;DHT22;16482;51.046;4.498;2023-01-15T05:32:59;18.50;44.20
29539;DHT22;16482;51.046;4.498;2023-01-15T05:35:32;18.50;44.20
29539;DHT22;16482;51.046;4.498;2023-01-15T05:38:00;18.50;44.20
29539;DHT22;16482;51.046;4.498;2023-01-15T05:40:36;18.50;44.10
29539;DHT22;16482;51.046;4.498;2023-01-15T05:43:01;18.50;44.10
29539;DHT22;16482;51.046;4.498;2023-01-15T05:45:32;18.50;44.10
29539;DHT22;16482;51.046;4.498;2023-01-15T05:48:06;18.50;44.10
29539;DHT22;16482;51.046;4.498;2023-01-15T05:50:32;18.50;44.10
29539;DHT22;16482;51.046;4.498;2023-01-15T05:53:00;18.50;44.10
29539;DHT22;16482;51.046;4.498;2023-01-15T05:55:35;18.50;44.10
29539;DHT22;16482;51.046;4.498;2023-01-15T05:58:04;18.50;44.10
29539;DHT22;16482;51.046;4.498;2023-01-15T06:00:30;18.60;44.10
29539;DHT22;16482;51.046;4.498;2023-01-15T06:03:03;18.50;44.00
29539;DHT22;16482;51.046;4.498;2023-01-15T06:05:29;18.50;44.00
29539;DHT22;16482;51.046;4.498;2023-01-15T06:08:02;18.50;44.00
29539;DHT22;16482;51.046;4.498;2023-01-15T06:10:31;18.50;44.00
29539;DHT22;16482;51.046;4.498;2023-01-15T06:12:59;18.50;44.00
29539;DHT22;16482;51.046;4.498;2023-01-15T06:15:32;18.50;44.00
29539;DHT22;16482;51.046;4.498;2023-01-15T06:18:06;18.50;44.60
29539;DHT22;16482;51.046;4.498;2023-01-15T06:20:35;18.50;44.00
29539;DHT22;16482;51.046;4.498;2023-01-15T06:23:03;18.50;43.90
29539;DHT22;16482;51.046;4.498;2023-01-15T06:25:33;18.50;43.90
29539;DHT22;16482;51.046;4.498;2023-01-15T06:28:03;18.50;43.80
29539;DHT22;16482;51.046;4.498;2023-01-15T06:30:38;18.50;43.80
29539;DHT22;16482;51.046;4.498;2023-01-15T06:33:05;18.50;43.80
29539;DHT22;16482;51.046;4.498;2023-01-15T06:35:32;18.50;43.80
29539;DHT22;16482;51.046;4.498;2023-01-15T06:38:05;18.50;43.70
29539;DHT22;16482;51.046;4.498;2023-01-15T06:40:35;18.50;43.70
29539;DHT22;16482;51.046;4.498;2023-01-15T06:43:01;18.50;43.70
29539;DHT22;16482;51.046;4.498;2023-01-15T06:45:45;18.50;43.70
29539;DHT22;16482;51.046;4.498;2023-01-15T06:48:29;18.50;43.70
29539;DHT22;16482;51.046;4.498;2023-01-15T06:50:55;18.50;43.70
29539;DHT22;16482;51.046;4.498;2023-01-15T06:53:21;18.50;43.70
29539;DHT22;16482;51.046;4.498;2023-01-15T06:55:56;18.50;43.60
29539;DHT22;16482;51.046;4.498;2023-01-15T06:58:22;18.50;43.50
29539;DHT22;16482;51.046;4.498;2023-01-15T07:00:48;18.50;43.60
29539;DHT22;16482;51.046;4.498;2023-01-15T07:03:21;18.50;43.50
29539;DHT22;16482;51.046;4.498;2023-01-15T07:05:47;18.50;43.50
29539;DHT22;16482;51.046;4.498;2023-01-15T07:08:13;18.50;43.50
29539;DHT22;16482;51.046;4.498;2023-01-15T07:10:39;18.50;43.50
29539;DHT22;16482;51.046;4.498;2023-01-15T07:13:08;18.50;43.50
29539;DHT22;16482;51.046;4.498;2023-01-15T07:15:37;18.50;43.40
29539;DHT22;16482;51.046;4.498;2023-01-15T07:18:03;18.50;43.40
29539;DHT22;16482;51.046;4.498;2023-01-15T07:20:38;18.50;43.40
29539;DHT22;16482;51.046;4.498;2023-01-15T07:23:04;18.50;43.40
29539;DHT22;16482;51.046;4.498;2023-01-15T07:25:30;18.50;43.40
29539;DHT22;16482;51.046;4.498;2023-01-15T07:28:05;18.50;43.40
29539;DHT22;16482;51.046;4.498;2023-01-15T07:30:31;18.50;43.40
29539;DHT22;16482;51.046;4.498;2023-01-15T07:33:04;18.50;43.40
29539;DHT22;16482;51.046;4.498;2023-01-15T07:35:34;18.50;43.40
29539;DHT22;16482;51.046;4.498;2023-01-15T07:38:01;18.50;43.40
29539;DHT22;16482;51.046;4.498;2023-01-15T07:40:35;18.50;43.30
29539;DHT22;16482;51.046;4.498;2023-01-15T07:43:03;18.50;43.30
29539;DHT22;16482;51.046;4.498;2023-01-15T07:45:47;18.50;43.20
29539;DHT22;16482;51.046;4.498;2023-01-15T07:48:32;18.50;43.20
29539;DHT22;16482;51.046;4.498;2023-01-15T07:51:24;18.40;43.20
29539;DHT22;16482;51.046;4.498;2023-01-15T07:53:49;18.50;43.20
29539;DHT22;16482;51.046;4.498;2023-01-15T07:56:23;18.50;43.20
29539;DHT22;16482;51.046;4.498;2023-01-15T07:58:56;18.50;43.20
29539;DHT22;16482;51.046;4.498;2023-01-15T08:01:22;18.50;43.20
29539;DHT22;16482;51.046;4.498;2023-01-15T08:03:55;18.60;43.30
29539;DHT22;16482;51.046;4.498;2023-01-15T08:06:21;18.50;43.20
29539;DHT22;16482;51.046;4.498;2023-01-15T08:08:56;18.50;43.20
29539;DHT22;16482;51.046;4.498;2023-01-15T08:11:22;18.50;43.20
29539;DHT22;16482;51.046;4.498;2023-01-15T08:14:08;18.50;43.10
29539;DHT22;16482;51.046;4.498;2023-01-15T08:16:53;18.50;43.10
29539;DHT22;16482;51.046;4.498;2023-01-15T08:19:19;18.50;43.10
29539;DHT22;16482;51.046;4.498;2023-01-15T08:21:45;18.50;43.10
29539;DHT22;16482;51.046;4.498;2023-01-15T08:24:10;18.60;43.10
29539;DHT22;16482;51.046;4.498;2023-01-15T08:26:36;18.50;43.00
29539;DHT22;16482;51.046;4.498;2023-01-15T08:29:02;18.50;43.00
29539;DHT22;16482;51.046;4.498;2023-01-15T08:31:28;18.50;42.90
29539;DHT22;16482;51.046;4.498;2023-01-15T08:33:54;18.50;42.90
29539;DHT22;16482;51.046;4.498;2023-01-15T08:36:20;18.50;42.90
29539;DHT22;16482;51.046;4.498;2023-01-15T08:38:53;18.50;42.90
29539;DHT22;16482;51.046;4.498;2023-01-15T08:41:28;18.50;42.80
29539;DHT22;16482;51.046;4.498;2023-01-15T08:43:54;18.50;42.80
29539;DHT22;16482;51.046;4.498;2023-01-15T08:46:20;18.50;42.80
29539;DHT22;16482;51.046;4.498;2023-01-15T08:48:53;18.50;42.80
29539;DHT22;16482;51.046;4.498;2023-01-15T08:51:22;18.60;42.80
29539;DHT22;16482;51.046;4.498;2023-01-15T08:53:55;18.50;42.70
29539;DHT22;16482;51.046;4.498;2023-01-15T08:56:21;18.60;42.80
29539;DHT22;16482;51.046;4.498;2023-01-15T08:58:54;18.50;42.60
29539;DHT22;16482;51.046;4.498;2023-01-15T09:01:23;18.60;42.70
29539;DHT22;16482;51.046;4.498;2023-01-15T09:03:54;18.60;42.60
29539;DHT22;16482;51.046;4.498;2023-01-15T09:06:28;18.60;42.70
29539;DHT22;16482;51.046;4.498;2023-01-15T09:09:00;18.60;42.70
29539;DHT22;16482;51.046;4.498;2023-01-15T09:11:26;18.50;42.60
29539;DHT22;16482;51.046;4.498;2023-01-15T09:13:55;18.60;42.60
29539;DHT22;16482;51.046;4.498;2023-01-15T09:16:21;18.60;42.50
29539;DHT22;16482;51.046;4.498;2023-01-15T09:18:55;18.60;42.50
29539;DHT22;16482;51.046;4.498;2023-01-15T09:21:30;18.60;42.50
29539;DHT22;16482;51.046;4.498;2023-01-15T09:23:55;18.60;42.40
29539;DHT22;16482;51.046;4.498;2023-01-15T09:26:33;18.60;42.40
29539;DHT22;16482;51.046;4.498;2023-01-15T09:29:00;18.60;42.30
29539;DHT22;16482;51.046;4.498;2023-01-15T09:31:29;18.60;42.30
29539;DHT22;16482;51.046;4.498;2023-01-15T09:33:58;18.60;42.30
29539;DHT22;16482;51.046;4.498;2023-01-15T09:36:27;18.60;42.20
29539;DHT22;16482;51.046;4.498;2023-01-15T09:38:57;18.60;42.10
29539;DHT22;16482;51.046;4.498;2023-01-15T09:41:33;18.60;42.10
29539;DHT22;16482;51.046;4.498;2023-01-15T09:47:01;18.60;42.10
29539;DHT22;16482;51.046;4.498;2023-01-15T09:57:45;18.60;42.10
29539;DHT22;16482;51.046;4.498;2023-01-15T10:00:26;18.60;42.00
29539;DHT22;16482;51.046;4.498;2023-01-15T10:05:47;18.60;42.00
29539;DHT22;16482;51.046;4.498;2023-01-15T10:08:21;18.60;41.90
29539;DHT22;16482;51.046;4.498;2023-01-15T10:11:00;18.60;41.80
29539;DHT22;16482;51.046;4.498;2023-01-15T10:13:34;18.60;41.80
29539;DHT22;16482;51.046;4.498;2023-01-15T10:16:02;18.60;41.80
29539;DHT22;16482;51.046;4.498;2023-01-15T10:18:28;18.60;41.80
29539;DHT22;16482;51.046;4.498;2023-01-15T10:26:16;18.60;41.70
29539;DHT22;16482;51.046;4.498;2023-01-15T10:29:02;18.60;41.60
29539;DHT22;16482;51.046;4.498;2023-01-15T10:31:51;18.60;41.60
29539;DHT22;16482;51.046;4.498;2023-01-15T10:37:13;18.60;41.60
29539;DHT22;16482;51.046;4.498;2023-01-15T10:42:40;18.60;41.60
29539;DHT22;16482;51.046;4.498;2023-01-15T10:45:40;18.60;41.50
29539;DHT22;16482;51.046;4.498;2023-01-15T10:50:42;18.60;41.50
29539;DHT22;16482;51.046;4.498;2023-01-15T10:55:52;18.60;41.60
29539;DHT22;16482;51.046;4.498;2023-01-15T11:01:25;18.60;41.50
29539;DHT22;16482;51.046;4.498;2023-01-15T11:03:59;18.60;41.40
29539;DHT22;16482;51.046;4.498;2023-01-15T11:06:28;18.60;41.40
29539;DHT22;16482;51.046;4.498;2023-01-15T11:08:57;18.70;41.50
29539;DHT22;16482;51.046;4.498;2023-01-15T11:11:37;18.60;42.10
29539;DHT22;16482;51.046;4.498;2023-01-15T11:14:46;18.60;41.40
29539;DHT22;16482;51.046;4.498;2023-01-15T11:17:46;18.60;41.40
29539;DHT22;16482;51.046;4.498;2023-01-15T11:20:33;18.60;41.40
29539;DHT22;16482;51.046;4.498;2023-01-15T11:23:08;18.60;41.40
29539;DHT22;16482;51.046;4.498;2023-01-15T11:25:34;18.60;41.40
29539;DHT22;16482;51.046;4.498;2023-01-15T11:28:10;18.60;41.40
29539;DHT22;16482;51.046;4.498;2023-01-15T11:30:40;18.60;41.40
29539;DHT22;16482;51.046;4.498;2023-01-15T11:33:21;18.60;41.40
29539;DHT22;16482;51.046;4.498;2023-01-15T11:35:52;18.60;41.30
29539;DHT22;16482;51.046;4.498;2023-01-15T11:38:24;18.60;41.30
29539;DHT22;16482;51.046;4.498;2023-01-15T11:40:58;18.60;41.30
29539;DHT22;16482;51.046;4.498;2023-01-15T11:43:27;18.60;41.30
29539;DHT22;16482;51.046;4.498;2023-01-15T11:46:38;18.60;41.30
29539;DHT22;16482;51.046;4.498;2023-01-15T11:49:22;18.60;41.40
29539;DHT22;16482;51.046;4.498;2023-01-15T11:52:18;18.60;41.30
29539;DHT22;16482;51.046;4.498;2023-01-15T11:54:51;18.60;41.30
29539;DHT22;16482;51.046;4.498;2023-01-15T11:57:29;18.60;41.30
29539;DHT22;16482;51.046;4.498;2023-01-15T11:59:56;18.60;41.30
29539;DHT22;16482;51.046;4.498;2023-01-15T12:02:35;18.60;41.30
29539;DHT22;16482;51.046;4.498;2023-01-15T12:05:15;18.60;41.30
29539;DHT22;16482;51.046;4.498;2023-01-15T12:07:43;18.60;41.30
29539;DHT22;16482;51.046;4.498;2023-01-15T12:16:30;18.60;41.30
29539;DHT22;16482;51.046;4.498;2023-01-15T12:25:15;18.60;41.40
29539;DHT22;16482;51.046;4.498;2023-01-15T12:31:04;18.60;41.40
29539;DHT22;16482;51.046;4.498;2023-01-15T12:39:16;18.60;41.30
29539;DHT22;16482;51.046;4.498;2023-01-15T12:41:47;18.50;41.30
29539;DHT22;16482;51.046;4.498;2023-01-15T12:44:53;18.50;41.30
29539;DHT22;16482;51.046;4.498;2023-01-15T12:50:53;18.50;41.30
29539;DHT22;16482;51.046;4.498;2023-01-15T12:56:32;18.50;41.30
29539;DHT22;16482;51.046;4.498;2023-01-15T12:59:15;18.50;41.30
29539;DHT22;16482;51.046;4.498;2023-01-15T13:04:58;18.60;41.30
29539;DHT22;16482;51.046;4.498;2023-01-15T13:07:42;18.50;41.30
29539;DHT22;16482;51.046;4.498;2023-01-15T13:12:40;18.60;41.30
29539;DHT22;16482;51.046;4.498;2023-01-15T13:15:10;18.50;41.30
29539;DHT22;16482;51.046;4.498;2023-01-15T13:18:13;18.60;41.30
29539;DHT22;16482;51.046;4.498;2023-01-15T13:20:49;18.60;41.20
29539;DHT22;16482;51.046;4.498;2023-01-15T13:23:39;18.60;41.30
29539;DHT22;16482;51.046;4.498;2023-01-15T13:31:58;18.60;41.20
29539;DHT22;16482;51.046;4.498;2023-01-15T13:37:21;18.60;41.20
29539;DHT22;16482;51.046;4.498;2023-01-15T13:39:49;18.60;41.20
29539;DHT22;16482;51.046;4.498;2023-01-15T13:42:22;18.60;41.20
29539;DHT22;16482;51.046;4.498;2023-01-15T13:45:35;18.60;41.30
29539;DHT22;16482;51.046;4.498;2023-01-15T13:50:50;18.60;41.20
29539;DHT22;16482;51.046;4.498;2023-01-15T13:53:25;18.60;41.20
29539;DHT22;16482;51.046;4.498;2023-01-15T13:56:08;18.60;41.30
29539;DHT22;16482;51.046;4.498;2023-01-15T13:58:39;18.60;41.20
29539;DHT22;16482;51.046;4.498;2023-01-15T14:06:37;18.70;41.20
29539;DHT22;16482;51.046;4.498;2023-01-15T14:09:04;18.60;41.20
29539;DHT22;16482;51.046;4.498;2023-01-15T14:22:50;18.60;41.30
29539;DHT22;16482;51.046;4.498;2023-01-15T14:25:50;18.60;41.20
29539;DHT22;16482;51.046;4.498;2023-01-15T14:28:30;18.60;41.20
29539;DHT22;16482;51.046;4.498;2023-01-15T14:34:00;18.60;41.20
29539;DHT22;16482;51.046;4.498;2023-01-15T14:36:34;18.60;41.20
29539;DHT22;16482;51.046;4.498;2023-01-15T14:39:03;18.60;41.30
29539;DHT22;16482;51.046;4.498;2023-01-15T14:41:34;18.60;41.30
29539;DHT22;16482;51.046;4.498;2023-01-15T14:44:31;18.60;41.30
29539;DHT22;16482;51.046;4.498;2023-01-15T14:47:00;18.70;41.30
29539;DHT22;16482;51.046;4.498;2023-01-15T14:49:41;18.60;41.30
29539;DHT22;16482;51.046;4.498;2023-01-15T14:52:21;18.60;41.30
29539;DHT22;16482;51.046;4.498;2023-01-15T14:54:48;18.60;41.30
29539;DHT22;16482;51.046;4.498;2023-01-15T14:57:14;18.60;41.30
29539;DHT22;16482;51.046;4.498;2023-01-15T15:00:01;18.60;41.30
29539;DHT22;16482;51.046;4.498;2023-01-15T15:02:38;18.70;41.30
29539;DHT22;16482;51.046;4.498;2023-01-15T15:05:13;18.60;41.30
29539;DHT22;16482;51.046;4.498;2023-01-15T15:07:43;18.70;41.40
29539;DHT22;16482;51.046;4.498;2023-01-15T15:12:48;18.60;41.30
29539;DHT22;16482;51.046;4.498;2023-01-15T15:18:14;18.60;41.30
29539;DHT22;16482;51.046;4.498;2023-01-15T15:20:58;18.60;41.30
29539;DHT22;16482;51.046;4.498;2023-01-15T15:23:55;18.60;41.30
29539;DHT22;16482;51.046;4.498;2023-01-15T15:26:29;18.60;41.30
29539;DHT22;16482;51.046;4.498;2023-01-15T15:31:31;18.60;41.50
29539;DHT22;16482;51.046;4.498;2023-01-15T15:33:57;18.60;41.40
29539;DHT22;16482;51.046;4.498;2023-01-15T15:36:26;18.60;41.50
29539;DHT22;16482;51.046;4.498;2023-01-15T15:39:02;18.60;41.40
29539;DHT22;16482;51.046;4.498;2023-01-15T15:41:34;18.60;41.40
29539;DHT22;16482;51.046;4.498;2023-01-15T15:47:21;18.60;41.30
29539;DHT22;16482;51.046;4.498;2023-01-15T15:50:06;18.60;41.40
29539;DHT22;16482;51.046;4.498;2023-01-15T15:52:33;18.60;41.40
29539;DHT22;16482;51.046;4.498;2023-01-15T15:55:01;18.60;41.40
29539;DHT22;16482;51.046;4.498;2023-01-15T15:57:31;18.60;41.40
29539;DHT22;16482;51.046;4.498;2023-01-15T15:59:58;18.70;41.50
29539;DHT22;16482;51.046;4.498;2023-01-15T16:02:37;18.60;41.40
29539;DHT22;16482;51.046;4.498;2023-01-15T16:05:23;18.60;41.30
29539;DHT22;16482;51.046;4.498;2023-01-15T16:07:50;18.60;41.30
29539;DHT22;16482;51.046;4.498;2023-01-15T16:10:33;18.70;41.40
29539;DHT22;16482;51.046;4.498;2023-01-15T16:13:12;18.70;41.40
29539;DHT22;16482;51.046;4.498;2023-01-15T16:15:40;18.60;41.30
29539;DHT22;16482;51.046;4.498;2023-01-15T16:18:19;18.70;41.40
29539;DHT22;16482;51.046;4.498;2023-01-15T16:20:48;18.70;41.40
29539;DHT22;16482;51.046;4.498;2023-01-15T16:23:28;18.60;41.40
29539;DHT22;16482;51.046;4.498;2023-01-15T16:25:57;18.60;41.30
29539;DHT22;16482;51.046;4.498;2023-01-15T16:28:26;18.60;41.30
29539;DHT22;16482;51.046;4.498;2023-01-15T16:30:57;18.60;41.30
29539;DHT22;16482;51.046;4.498;2023-01-15T16:33:24;18.60;41.30
29539;DHT22;16482;51.046;4.498;2023-01-15T16:35:58;18.70;41.30
29539;DHT22;16482;51.046;4.498;2023-01-15T16:38:25;18.70;41.30
29539;DHT22;16482;51.046;4.498;2023-01-15T16:40:52;18.70;41.30
29539;DHT22;16482;51.046;4.498;2023-01-15T16:43:21;18.70;41.40
29539;DHT22;16482;51.046;4.498;2023-01-15T16:48:38;18.70;41.30
29539;DHT22;16482;51.046;4.498;2023-01-15T16:51:36;18.60;41.30
29539;DHT22;16482;51.046;4.498;2023-01-15T16:56:57;18.70;41.20
29539;DHT22;16482;51.046;4.498;2023-01-15T17:02:09;18.70;41.30
29539;DHT22;16482;51.046;4.498;2023-01-15T17:04:46;18.60;41.20
29539;DHT22;16482;51.046;4.498;2023-01-15T17:09:52;18.60;41.20
29539;DHT22;16482;51.046;4.498;2023-01-15T17:12:26;18.70;41.20
29539;DHT22;16482;51.046;4.498;2023-01-15T17:14:53;18.70;41.20
29539;DHT22;16482;51.046;4.498;2023-01-15T17:17:23;18.70;41.30
29539;DHT22;16482;51.046;4.498;2023-01-15T17:19:54;18.70;41.30
29539;DHT22;16482;51.046;4.498;2023-01-15T17:22:30;18.70;41.30
29539;DHT22;16482;51.046;4.498;2023-01-15T17:24:58;18.70;41.30
29539;DHT22;16482;51.046;4.498;2023-01-15T17:27:26;18.70;41.30
29539;DHT22;16482;51.046;4.498;2023-01-15T17:29:52;18.70;41.30
29539;DHT22;16482;51.046;4.498;2023-01-15T17:32:32;18.70;41.30
29539;DHT22;16482;51.046;4.498;2023-01-15T17:35:05;18.70;41.20
29539;DHT22;16482;51.046;4.498;2023-01-15T17:37:31;18.70;41.20
29539;DHT22;16482;51.046;4.498;2023-01-15T17:39:57;18.70;41.30
29539;DHT22;16482;51.046;4.498;2023-01-15T17:42:23;18.70;41.30
29539;DHT22;16482;51.046;4.498;2023-01-15T17:44:49;18.70;41.30
29539;DHT22;16482;51.046;4.498;2023-01-15T17:47:17;18.70;41.30
29539;DHT22;16482;51.046;4.498;2023-01-15T17:49:43;18.70;41.30
29539;DHT22;16482;51.046;4.498;2023-01-15T17:52:18;18.70;41.30
29539;DHT22;16482;51.046;4.498;2023-01-15T17:54:47;18.70;41.20
29539;DHT22;16482;51.046;4.498;2023-01-15T17:57:31;18.70;41.30
29539;DHT22;16482;51.046;4.498;2023-01-15T18:00:16;18.70;41.20
29539;DHT22;16482;51.046;4.498;2023-01-15T18:03:12;18.70;41.30
29539;DHT22;16482;51.046;4.498;2023-01-15T18:05:59;18.70;41.20
29539;DHT22;16482;51.046;4.498;2023-01-15T18:08:25;18.70;41.30
29539;DHT22;16482;51.046;4.498;2023-01-15T18:10:51;18.70;41.30
29539;DHT22;16482;51.046;4.498;2023-01-15T18:13:16;18.70;41.40
29539;DHT22;16482;51.046;4.498;2023-01-15T18:15:43;18.70;41.30
29539;DHT22;16482;51.046;4.498;2023-01-15T18:18:08;18.70;41.30
29539;DHT22;16482;51.046;4.498;2023-01-15T18:20:35;18.70;41.30
29539;DHT22;16482;51.046;4.498;2023-01-15T18:23:09;18.70;41.40
29539;DHT22;16482;51.046;4.498;2023-01-15T18:25:35;18.70;41.30
29539;DHT22;16482;51.046;4.498;2023-01-15T18:28:03;18.70;41.40
29539;DHT22;16482;51.046;4.498;2023-01-15T18:30:39;18.70;41.40